sensor_id;sensor_type;location;lat;lon;timestamp;temperature;humidity
31783;DHT22;18351;47.560;9.708;2022-10-31T00:01:13;9.00;99.90
31783;DHT22;18351;47.560;9.708;2022-10-31T00:03:39;8.80;99.90
31783;DHT22;18351;47.560;9.708;2022-10-31T00:06:04;8.80;99.90
31783;DHT22;18351;47.560;9.708;2022-10-31T00:08:30;8.80;99.90
31783;DHT22;18351;47.560;9.708;2022-10-31T00:10:55;10.00;99.90
31783;DHT22;18351;47.560;9.708;2022-10-31T00:13:21;8.90;99.90
31783;DHT22;18351;47.560;9.708;2022-10-31T00:15:46;8.90;99.90
31783;DHT22;18351;47.560;9.708;2022-10-31T00:18:12;9.00;99.90
31783;DHT22;18351;47.560;9.708;2022-10-31T00:20:37;9.00;99.90
31783;DHT22;18351;47.560;9.708;2022-10-31T00:23:03;8.90;99.90
31783;DHT22;18351;47.560;9.708;2022-10-31T00:25:32;8.90;99.90
31783;DHT22;18351;47.560;9.708;2022-10-31T00:27:58;10.10;99.90
31783;DHT22;18351;47.560;9.708;2022-10-31T00:30:23;8.90;99.90
31783;DHT22;18351;47.560;9.708;2022-10-31T00:32:49;8.80;99.90
31783;DHT22;18351;47.560;9.708;2022-10-31T00:35:14;9.20;99.90
31783;DHT22;18351;47.560;9.708;2022-10-31T00:37:40;8.60;99.90
31783;DHT22;18351;47.560;9.708;2022-10-31T00:40:05;8.20;99.90
31783;DHT22;18351;47.560;9.708;2022-10-31T00:42:31;8.60;99.90
31783;DHT22;18351;47.560;9.708;2022-10-31T00:44:57;8.60;99.90
31783;DHT22;18351;47.560;9.708;2022-10-31T00:47:22;8.60;99.90
31783;DHT22;18351;47.560;9.708;2022-10-31T00:49:48;8.60;99.90
31783;DHT22;18351;47.560;9.708;2022-10-31T00:52:13;9.50;99.90
31783;DHT22;18351;47.560;9.708;2022-10-31T00:54:38;9.10;99.90
31783;DHT22;18351;47.560;9.708;2022-10-31T00:57:04;8.50;99.90
31783;DHT22;18351;47.560;9.708;2022-10-31T00:59:29;10.00;99.90
31783;DHT22;18351;47.560;9.708;2022-10-31T01:01:55;8.60;99.90
31783;DHT22;18351;47.560;9.708;2022-10-31T01:04:20;8.50;99.90
31783;DHT22;18351;47.560;9.708;2022-10-31T01:06:46;8.40;99.90
31783;DHT22;18351;47.560;9.708;2022-10-31T01:09:11;8.40;99.90
31783;DHT22;18351;47.560;9.708;2022-10-31T01:11:37;8.70;99.90
31783;DHT22;18351;47.560;9.708;2022-10-31T01:14:02;8.40;99.90
31783;DHT22;18351;47.560;9.708;2022-10-31T01:16:28;8.40;99.90
31783;DHT22;18351;47.560;9.708;2022-10-31T01:18:56;8.40;99.90
31783;DHT22;18351;47.560;9.708;2022-10-31T01:21:23;8.30;99.90
31783;DHT22;18351;47.560;9.708;2022-10-31T01:23:49;8.30;99.90
31783;DHT22;18351;47.560;9.708;2022-10-31T01:26:16;8.30;99.90
31783;DHT22;18351;47.560;9.708;2022-10-31T01:28:46;8.90;99.90
31783;DHT22;18351;47.560;9.708;2022-10-31T01:31:11;8.30;99.90
31783;DHT22;18351;47.560;9.708;2022-10-31T01:33:37;8.70;99.90
31783;DHT22;18351;47.560;9.708;2022-10-31T01:36:19;8.70;99.90
31783;DHT22;18351;47.560;9.708;2022-10-31T01:38:46;8.30;99.90
31783;DHT22;18351;47.560;9.708;2022-10-31T01:41:12;8.40;99.90
31783;DHT22;18351;47.560;9.708;2022-10-31T01:43:41;8.40;99.90
31783;DHT22;18351;47.560;9.708;2022-10-31T01:46:07;8.40;99.90
31783;DHT22;18351;47.560;9.708;2022-10-31T01:48:33;8.40;99.90
31783;DHT22;18351;47.560;9.708;2022-10-31T01:50:58;8.40;99.90
31783;DHT22;18351;47.560;9.708;2022-10-31T01:53:24;8.60;99.90
31783;DHT22;18351;47.560;9.708;2022-10-31T01:55:50;8.50;99.90
31783;DHT22;18351;47.560;9.708;2022-10-31T01:58:20;8.70;99.90
31783;DHT22;18351;47.560;9.708;2022-10-31T02:00:48;8.50;99.90
31783;DHT22;18351;47.560;9.708;2022-10-31T02:03:15;8.40;99.90
31783;DHT22;18351;47.560;9.708;2022-10-31T02:05:41;9.00;99.90
31783;DHT22;18351;47.560;9.708;2022-10-31T02:08:08;8.40;99.90
31783;DHT22;18351;47.560;9.708;2022-10-31T02:10:37;8.90;99.90
31783;DHT22;18351;47.560;9.708;2022-10-31T02:13:03;8.80;99.90
31783;DHT22;18351;47.560;9.708;2022-10-31T02:15:30;8.70;99.90
31783;DHT22;18351;47.560;9.708;2022-10-31T02:17:56;8.90;99.90
31783;DHT22;18351;47.560;9.708;2022-10-31T02:20:25;9.00;99.90
31783;DHT22;18351;47.560;9.708;2022-10-31T02:35:47;8.70;99.90
31783;DHT22;18351;47.560;9.708;2022-10-31T02:38:26;8.20;99.90
31783;DHT22;18351;47.560;9.708;2022-10-31T02:43:40;8.10;99.90
31783;DHT22;18351;47.560;9.708;2022-10-31T02:46:10;9.30;99.90
31783;DHT22;18351;47.560;9.708;2022-10-31T02:48:37;9.70;99.90
31783;DHT22;18351;47.560;9.708;2022-10-31T02:51:04;8.50;99.90
31783;DHT22;18351;47.560;9.708;2022-10-31T02:53:33;8.00;99.90
31783;DHT22;18351;47.560;9.708;2022-10-31T02:58:26;8.50;99.90
31783;DHT22;18351;47.560;9.708;2022-10-31T03:03:23;8.00;99.90
31783;DHT22;18351;47.560;9.708;2022-10-31T03:06:02;8.20;99.90
31783;DHT22;18351;47.560;9.708;2022-10-31T03:08:36;7.90;99.90
31783;DHT22;18351;47.560;9.708;2022-10-31T03:11:05;7.90;99.90
31783;DHT22;18351;47.560;9.708;2022-10-31T03:13:35;7.90;99.90
31783;DHT22;18351;47.560;9.708;2022-10-31T03:18:29;7.70;99.90
31783;DHT22;18351;47.560;9.708;2022-10-31T03:21:07;7.70;99.90
31783;DHT22;18351;47.560;9.708;2022-10-31T03:23:35;7.70;99.90
31783;DHT22;18351;47.560;9.708;2022-10-31T03:26:01;8.30;99.90
31783;DHT22;18351;47.560;9.708;2022-10-31T03:28:29;7.30;99.90
31783;DHT22;18351;47.560;9.708;2022-10-31T03:30:56;7.60;99.90
31783;DHT22;18351;47.560;9.708;2022-10-31T03:33:24;8.10;99.90
31783;DHT22;18351;47.560;9.708;2022-10-31T03:35:52;7.70;99.90
31783;DHT22;18351;47.560;9.708;2022-10-31T03:38:18;7.40;99.90
31783;DHT22;18351;47.560;9.708;2022-10-31T03:40:45;7.40;99.90
31783;DHT22;18351;47.560;9.708;2022-10-31T03:43:13;7.40;99.90
31783;DHT22;18351;47.560;9.708;2022-10-31T03:45:41;7.40;99.90
31783;DHT22;18351;47.560;9.708;2022-10-31T03:48:08;7.40;99.90
31783;DHT22;18351;47.560;9.708;2022-10-31T03:50:45;7.40;99.90
31783;DHT22;18351;47.560;9.708;2022-10-31T03:53:14;7.40;99.90
31783;DHT22;18351;47.560;9.708;2022-10-31T03:55:44;7.40;99.90
31783;DHT22;18351;47.560;9.708;2022-10-31T03:58:15;7.40;99.90
31783;DHT22;18351;47.560;9.708;2022-10-31T04:00:43;7.40;99.90
31783;DHT22;18351;47.560;9.708;2022-10-31T04:03:10;7.50;99.90
31783;DHT22;18351;47.560;9.708;2022-10-31T04:05:36;7.50;99.90
31783;DHT22;18351;47.560;9.708;2022-10-31T04:08:03;7.50;99.90
31783;DHT22;18351;47.560;9.708;2022-10-31T04:10:29;7.50;99.90
31783;DHT22;18351;47.560;9.708;2022-10-31T04:13:01;7.50;99.90
31783;DHT22;18351;47.560;9.708;2022-10-31T04:15:28;7.50;99.90
31783;DHT22;18351;47.560;9.708;2022-10-31T04:17:55;7.40;99.90
31783;DHT22;18351;47.560;9.708;2022-10-31T04:20:35;7.40;99.90
31783;DHT22;18351;47.560;9.708;2022-10-31T04:23:01;7.40;99.90
31783;DHT22;18351;47.560;9.708;2022-10-31T04:25:26;7.30;99.90
31783;DHT22;18351;47.560;9.708;2022-10-31T04:27:52;7.20;99.90
31783;DHT22;18351;47.560;9.708;2022-10-31T04:30:17;7.20;99.90
31783;DHT22;18351;47.560;9.708;2022-10-31T04:32:43;7.20;99.90
31783;DHT22;18351;47.560;9.708;2022-10-31T04:35:08;7.20;99.90
31783;DHT22;18351;47.560;9.708;2022-10-31T04:37:34;7.20;99.90
31783;DHT22;18351;47.560;9.708;2022-10-31T04:39:59;7.30;99.90
31783;DHT22;18351;47.560;9.708;2022-10-31T04:42:25;7.20;99.90
31783;DHT22;18351;47.560;9.708;2022-10-31T04:44:50;7.20;99.90
31783;DHT22;18351;47.560;9.708;2022-10-31T04:47:16;7.00;99.90
31783;DHT22;18351;47.560;9.708;2022-10-31T04:49:41;7.00;99.90
31783;DHT22;18351;47.560;9.708;2022-10-31T04:52:06;7.00;99.90
31783;DHT22;18351;47.560;9.708;2022-10-31T04:54:33;7.00;99.90
31783;DHT22;18351;47.560;9.708;2022-10-31T04:56:58;7.00;99.90
31783;DHT22;18351;47.560;9.708;2022-10-31T04:59:24;7.00;99.90
31783;DHT22;18351;47.560;9.708;2022-10-31T05:01:49;7.10;99.90
31783;DHT22;18351;47.560;9.708;2022-10-31T05:04:15;7.10;99.90
31783;DHT22;18351;47.560;9.708;2022-10-31T05:06:40;7.10;99.90
31783;DHT22;18351;47.560;9.708;2022-10-31T05:09:06;7.10;99.90
31783;DHT22;18351;47.560;9.708;2022-10-31T05:11:31;7.20;99.90
31783;DHT22;18351;47.560;9.708;2022-10-31T05:13:56;7.10;99.90
31783;DHT22;18351;47.560;9.708;2022-10-31T05:16:22;7.20;99.90
31783;DHT22;18351;47.560;9.708;2022-10-31T05:18:47;7.20;99.90
31783;DHT22;18351;47.560;9.708;2022-10-31T05:21:13;7.20;99.90
31783;DHT22;18351;47.560;9.708;2022-10-31T05:23:38;7.20;99.90
31783;DHT22;18351;47.560;9.708;2022-10-31T05:26:04;7.10;99.90
31783;DHT22;18351;47.560;9.708;2022-10-31T05:28:29;7.00;99.90
31783;DHT22;18351;47.560;9.708;2022-10-31T05:30:55;6.90;99.90
31783;DHT22;18351;47.560;9.708;2022-10-31T05:33:20;6.80;99.90
31783;DHT22;18351;47.560;9.708;2022-10-31T05:35:46;6.80;99.90
31783;DHT22;18351;47.560;9.708;2022-10-31T05:38:11;6.80;99.90
31783;DHT22;18351;47.560;9.708;2022-10-31T05:40:36;6.70;99.90
31783;DHT22;18351;47.560;9.708;2022-10-31T05:43:02;6.70;99.90
31783;DHT22;18351;47.560;9.708;2022-10-31T05:45:27;6.70;99.90
31783;DHT22;18351;47.560;9.708;2022-10-31T05:47:57;6.60;99.90
31783;DHT22;18351;47.560;9.708;2022-10-31T05:50:23;6.60;99.90
31783;DHT22;18351;47.560;9.708;2022-10-31T05:52:59;6.60;99.90
31783;DHT22;18351;47.560;9.708;2022-10-31T05:55:25;6.50;99.90
31783;DHT22;18351;47.560;9.708;2022-10-31T05:57:51;6.50;99.90
31783;DHT22;18351;47.560;9.708;2022-10-31T06:00:17;6.50;99.90
31783;DHT22;18351;47.560;9.708;2022-10-31T06:02:42;6.50;99.90
31783;DHT22;18351;47.560;9.708;2022-10-31T06:05:08;6.50;99.90
31783;DHT22;18351;47.560;9.708;2022-10-31T06:07:33;6.50;99.90
31783;DHT22;18351;47.560;9.708;2022-10-31T06:09:59;6.50;99.90
31783;DHT22;18351;47.560;9.708;2022-10-31T06:12:25;6.50;99.90
31783;DHT22;18351;47.560;9.708;2022-10-31T06:14:50;6.50;99.90
31783;DHT22;18351;47.560;9.708;2022-10-31T06:17:15;6.50;99.90
31783;DHT22;18351;47.560;9.708;2022-10-31T06:19:41;6.50;99.90
31783;DHT22;18351;47.560;9.708;2022-10-31T06:22:06;6.60;99.90
31783;DHT22;18351;47.560;9.708;2022-10-31T06:24:32;6.60;99.90
31783;DHT22;18351;47.560;9.708;2022-10-31T06:26:57;6.60;99.90
31783;DHT22;18351;47.560;9.708;2022-10-31T06:29:23;6.60;99.90
31783;DHT22;18351;47.560;9.708;2022-10-31T06:31:50;6.60;99.90
31783;DHT22;18351;47.560;9.708;2022-10-31T06:34:16;6.70;99.90
31783;DHT22;18351;47.560;9.708;2022-10-31T06:36:41;6.70;99.90
31783;DHT22;18351;47.560;9.708;2022-10-31T06:39:07;6.80;99.90
31783;DHT22;18351;47.560;9.708;2022-10-31T06:41:32;6.70;99.90
31783;DHT22;18351;47.560;9.708;2022-10-31T06:43:58;6.80;99.90
31783;DHT22;18351;47.560;9.708;2022-10-31T06:46:23;6.80;99.90
31783;DHT22;18351;47.560;9.708;2022-10-31T06:48:49;6.90;99.90
31783;DHT22;18351;47.560;9.708;2022-10-31T06:51:14;6.90;99.90
31783;DHT22;18351;47.560;9.708;2022-10-31T06:53:40;7.00;99.90
31783;DHT22;18351;47.560;9.708;2022-10-31T06:56:05;7.10;99.90
31783;DHT22;18351;47.560;9.708;2022-10-31T06:58:31;7.10;99.90
31783;DHT22;18351;47.560;9.708;2022-10-31T07:00:58;7.20;99.90
31783;DHT22;18351;47.560;9.708;2022-10-31T07:03:24;7.20;99.90
31783;DHT22;18351;47.560;9.708;2022-10-31T07:05:49;7.30;99.90
31783;DHT22;18351;47.560;9.708;2022-10-31T07:08:15;7.40;99.90
31783;DHT22;18351;47.560;9.708;2022-10-31T07:10:41;7.50;99.90
31783;DHT22;18351;47.560;9.708;2022-10-31T07:13:11;7.50;99.90
31783;DHT22;18351;47.560;9.708;2022-10-31T07:15:37;7.60;99.90
31783;DHT22;18351;47.560;9.708;2022-10-31T07:18:03;7.70;99.90
31783;DHT22;18351;47.560;9.708;2022-10-31T07:20:29;7.80;99.90
31783;DHT22;18351;47.560;9.708;2022-10-31T07:22:55;7.90;99.90
31783;DHT22;18351;47.560;9.708;2022-10-31T07:25:21;8.00;99.90
31783;DHT22;18351;47.560;9.708;2022-10-31T07:27:46;8.10;99.90
31783;DHT22;18351;47.560;9.708;2022-10-31T07:30:12;8.30;99.90
31783;DHT22;18351;47.560;9.708;2022-10-31T07:32:41;8.40;99.90
31783;DHT22;18351;47.560;9.708;2022-10-31T07:35:07;8.60;99.90
31783;DHT22;18351;47.560;9.708;2022-10-31T07:37:33;8.70;99.90
31783;DHT22;18351;47.560;9.708;2022-10-31T07:39:58;8.80;99.90
31783;DHT22;18351;47.560;9.708;2022-10-31T07:42:24;8.90;99.90
31783;DHT22;18351;47.560;9.708;2022-10-31T07:44:49;9.10;99.90
31783;DHT22;18351;47.560;9.708;2022-10-31T07:47:15;9.20;99.90
31783;DHT22;18351;47.560;9.708;2022-10-31T07:49:40;9.30;99.90
31783;DHT22;18351;47.560;9.708;2022-10-31T07:52:06;9.50;99.90
31783;DHT22;18351;47.560;9.708;2022-10-31T07:54:31;9.60;99.90
31783;DHT22;18351;47.560;9.708;2022-10-31T07:56:56;9.80;99.90
31783;DHT22;18351;47.560;9.708;2022-10-31T07:59:22;9.90;99.90
31783;DHT22;18351;47.560;9.708;2022-10-31T08:01:47;10.10;99.90
31783;DHT22;18351;47.560;9.708;2022-10-31T08:04:13;10.40;99.90
31783;DHT22;18351;47.560;9.708;2022-10-31T08:06:38;10.60;99.90
31783;DHT22;18351;47.560;9.708;2022-10-31T08:09:04;10.70;99.90
31783;DHT22;18351;47.560;9.708;2022-10-31T08:11:29;10.80;99.90
31783;DHT22;18351;47.560;9.708;2022-10-31T08:13:55;10.80;99.90
31783;DHT22;18351;47.560;9.708;2022-10-31T08:16:20;10.90;99.90
31783;DHT22;18351;47.560;9.708;2022-10-31T08:18:46;11.00;99.90
31783;DHT22;18351;47.560;9.708;2022-10-31T08:21:11;11.00;99.90
31783;DHT22;18351;47.560;9.708;2022-10-31T08:23:37;11.10;99.90
31783;DHT22;18351;47.560;9.708;2022-10-31T08:26:02;11.30;99.90
31783;DHT22;18351;47.560;9.708;2022-10-31T08:28:27;11.40;99.90
31783;DHT22;18351;47.560;9.708;2022-10-31T08:30:53;11.60;99.90
31783;DHT22;18351;47.560;9.708;2022-10-31T08:33:18;11.80;99.90
31783;DHT22;18351;47.560;9.708;2022-10-31T08:35:44;11.90;99.90
31783;DHT22;18351;47.560;9.708;2022-10-31T08:38:10;12.00;99.90
31783;DHT22;18351;47.560;9.708;2022-10-31T08:40:36;12.00;99.90
31783;DHT22;18351;47.560;9.708;2022-10-31T08:43:03;12.10;99.90
31783;DHT22;18351;47.560;9.708;2022-10-31T08:45:29;12.10;99.90
31783;DHT22;18351;47.560;9.708;2022-10-31T08:48:05;12.00;99.90
31783;DHT22;18351;47.560;9.708;2022-10-31T08:50:32;12.10;99.90
31783;DHT22;18351;47.560;9.708;2022-10-31T08:53:04;12.10;99.90
31783;DHT22;18351;47.560;9.708;2022-10-31T08:55:30;12.20;99.90
31783;DHT22;18351;47.560;9.708;2022-10-31T08:57:59;12.30;99.90
31783;DHT22;18351;47.560;9.708;2022-10-31T09:00:24;12.40;99.90
31783;DHT22;18351;47.560;9.708;2022-10-31T09:02:56;12.40;99.90
31783;DHT22;18351;47.560;9.708;2022-10-31T09:05:22;12.50;99.90
31783;DHT22;18351;47.560;9.708;2022-10-31T09:07:48;12.50;99.90
31783;DHT22;18351;47.560;9.708;2022-10-31T09:10:13;12.60;99.90
31783;DHT22;18351;47.560;9.708;2022-10-31T09:12:39;12.60;99.90
31783;DHT22;18351;47.560;9.708;2022-10-31T09:15:04;12.70;99.90
31783;DHT22;18351;47.560;9.708;2022-10-31T09:17:31;12.80;99.90
31783;DHT22;18351;47.560;9.708;2022-10-31T09:19:57;12.70;99.90
31783;DHT22;18351;47.560;9.708;2022-10-31T09:22:22;12.60;99.90
31783;DHT22;18351;47.560;9.708;2022-10-31T09:24:48;12.60;99.90
31783;DHT22;18351;47.560;9.708;2022-10-31T09:27:13;12.60;99.90
31783;DHT22;18351;47.560;9.708;2022-10-31T09:29:39;12.60;99.90
31783;DHT22;18351;47.560;9.708;2022-10-31T09:32:04;12.60;99.90
31783;DHT22;18351;47.560;9.708;2022-10-31T09:34:30;12.60;99.90
31783;DHT22;18351;47.560;9.708;2022-10-31T09:36:55;12.50;99.90
31783;DHT22;18351;47.560;9.708;2022-10-31T09:39:21;12.50;99.90
31783;DHT22;18351;47.560;9.708;2022-10-31T09:51:45;12.90;99.90
31783;DHT22;18351;47.560;9.708;2022-10-31T09:54:14;13.10;99.90
31783;DHT22;18351;47.560;9.708;2022-10-31T09:56:41;13.20;99.90
31783;DHT22;18351;47.560;9.708;2022-10-31T09:59:11;13.10;99.90
31783;DHT22;18351;47.560;9.708;2022-10-31T10:06:47;13.10;99.90
31783;DHT22;18351;47.560;9.708;2022-10-31T10:09:14;13.10;99.90
31783;DHT22;18351;47.560;9.708;2022-10-31T10:22:05;13.20;99.90
31783;DHT22;18351;47.560;9.708;2022-10-31T10:24:44;13.30;99.90
31783;DHT22;18351;47.560;9.708;2022-10-31T10:27:40;13.40;99.90
31783;DHT22;18351;47.560;9.708;2022-10-31T10:30:07;13.60;99.90
31783;DHT22;18351;47.560;9.708;2022-10-31T10:32:43;13.80;99.90
31783;DHT22;18351;47.560;9.708;2022-10-31T10:35:14;14.00;99.90
31783;DHT22;18351;47.560;9.708;2022-10-31T10:37:40;14.00;99.90
31783;DHT22;18351;47.560;9.708;2022-10-31T10:40:11;14.00;99.90
31783;DHT22;18351;47.560;9.708;2022-10-31T10:42:38;14.00;99.90
31783;DHT22;18351;47.560;9.708;2022-10-31T10:45:22;14.00;99.90
31783;DHT22;18351;47.560;9.708;2022-10-31T10:48:29;14.30;99.90
31783;DHT22;18351;47.560;9.708;2022-10-31T10:50:56;14.30;99.90
31783;DHT22;18351;47.560;9.708;2022-10-31T10:56:30;14.30;99.90
31783;DHT22;18351;47.560;9.708;2022-10-31T10:58:48;14.20;99.90
31783;DHT22;18351;47.560;9.708;2022-10-31T11:01:14;14.30;99.90
31783;DHT22;18351;47.560;9.708;2022-10-31T11:03:40;14.40;99.90
31783;DHT22;18351;47.560;9.708;2022-10-31T11:06:15;14.60;99.90
31783;DHT22;18351;47.560;9.708;2022-10-31T11:08:41;14.60;99.90
31783;DHT22;18351;47.560;9.708;2022-10-31T11:11:40;14.50;99.90
31783;DHT22;18351;47.560;9.708;2022-10-31T11:14:03;14.60;99.90
31783;DHT22;18351;47.560;9.708;2022-10-31T11:16:30;14.50;99.90
31783;DHT22;18351;47.560;9.708;2022-10-31T11:19:13;14.60;99.90
31783;DHT22;18351;47.560;9.708;2022-10-31T11:21:42;14.70;99.90
31783;DHT22;18351;47.560;9.708;2022-10-31T11:26:36;14.80;99.90
31783;DHT22;18351;47.560;9.708;2022-10-31T11:29:03;14.80;99.90
31783;DHT22;18351;47.560;9.708;2022-10-31T11:31:29;14.90;99.90
31783;DHT22;18351;47.560;9.708;2022-10-31T11:34:05;15.00;99.90
31783;DHT22;18351;47.560;9.708;2022-10-31T11:36:38;15.00;99.90
31783;DHT22;18351;47.560;9.708;2022-10-31T11:39:04;14.90;99.90
31783;DHT22;18351;47.560;9.708;2022-10-31T11:41:31;14.90;99.90
31783;DHT22;18351;47.560;9.708;2022-10-31T11:43:59;15.10;99.90
31783;DHT22;18351;47.560;9.708;2022-10-31T11:49:15;15.20;99.90
31783;DHT22;18351;47.560;9.708;2022-10-31T11:51:40;15.40;99.90
31783;DHT22;18351;47.560;9.708;2022-10-31T11:54:15;15.40;99.90
31783;DHT22;18351;47.560;9.708;2022-10-31T11:56:43;15.40;99.90
31783;DHT22;18351;47.560;9.708;2022-10-31T11:59:17;15.30;99.90
31783;DHT22;18351;47.560;9.708;2022-10-31T12:01:46;15.20;99.90
31783;DHT22;18351;47.560;9.708;2022-10-31T12:04:12;15.10;99.90
31783;DHT22;18351;47.560;9.708;2022-10-31T12:06:38;15.00;99.90
31783;DHT22;18351;47.560;9.708;2022-10-31T12:11:46;14.80;99.90
31783;DHT22;18351;47.560;9.708;2022-10-31T12:19:35;14.60;99.90
31783;DHT22;18351;47.560;9.708;2022-10-31T12:22:04;14.50;99.90
31783;DHT22;18351;47.560;9.708;2022-10-31T12:32:20;14.50;99.90
31783;DHT22;18351;47.560;9.708;2022-10-31T12:34:53;14.40;99.90
31783;DHT22;18351;47.560;9.708;2022-10-31T12:37:44;14.30;99.90
31783;DHT22;18351;47.560;9.708;2022-10-31T12:58:49;14.50;99.90
31783;DHT22;18351;47.560;9.708;2022-10-31T13:01:27;14.60;99.90
31783;DHT22;18351;47.560;9.708;2022-10-31T13:04:02;14.70;99.90
31783;DHT22;18351;47.560;9.708;2022-10-31T13:06:32;14.70;99.90
31783;DHT22;18351;47.560;9.708;2022-10-31T13:09:00;14.70;99.90
31783;DHT22;18351;47.560;9.708;2022-10-31T13:11:34;14.90;99.90
31783;DHT22;18351;47.560;9.708;2022-10-31T13:14:02;14.80;99.90
31783;DHT22;18351;47.560;9.708;2022-10-31T13:16:34;14.80;99.90
31783;DHT22;18351;47.560;9.708;2022-10-31T13:21:30;15.10;99.90
31783;DHT22;18351;47.560;9.708;2022-10-31T13:23:56;15.20;99.90
31783;DHT22;18351;47.560;9.708;2022-10-31T13:31:53;15.40;99.90
31783;DHT22;18351;47.560;9.708;2022-10-31T13:34:22;15.50;99.90
31783;DHT22;18351;47.560;9.708;2022-10-31T13:37:06;15.50;99.90
31783;DHT22;18351;47.560;9.708;2022-10-31T13:42:12;15.50;99.90
31783;DHT22;18351;47.560;9.708;2022-10-31T13:44:40;15.60;99.90
31783;DHT22;18351;47.560;9.708;2022-10-31T13:49:50;15.60;99.90
31783;DHT22;18351;47.560;9.708;2022-10-31T13:52:23;15.60;99.90
31783;DHT22;18351;47.560;9.708;2022-10-31T13:54:50;15.40;99.90
31783;DHT22;18351;47.560;9.708;2022-10-31T13:59:53;15.40;99.90
31783;DHT22;18351;47.560;9.708;2022-10-31T14:02:30;15.30;99.90
31783;DHT22;18351;47.560;9.708;2022-10-31T14:05:00;15.30;99.90
31783;DHT22;18351;47.560;9.708;2022-10-31T14:07:26;15.30;99.90
31783;DHT22;18351;47.560;9.708;2022-10-31T14:12:37;15.30;99.90
31783;DHT22;18351;47.560;9.708;2022-10-31T14:17:45;15.20;99.90
31783;DHT22;18351;47.560;9.708;2022-10-31T14:22:38;15.10;99.90
31783;DHT22;18351;47.560;9.708;2022-10-31T14:27:48;14.70;99.90
31783;DHT22;18351;47.560;9.708;2022-10-31T14:30:14;14.70;99.90
31783;DHT22;18351;47.560;9.708;2022-10-31T14:32:40;14.80;99.90
31783;DHT22;18351;47.560;9.708;2022-10-31T14:35:09;14.70;99.90
31783;DHT22;18351;47.560;9.708;2022-10-31T14:38:02;14.70;99.90
31783;DHT22;18351;47.560;9.708;2022-10-31T14:43:20;14.60;99.90
31783;DHT22;18351;47.560;9.708;2022-10-31T14:45:56;14.60;99.90
31783;DHT22;18351;47.560;9.708;2022-10-31T14:48:43;14.50;99.90
31783;DHT22;18351;47.560;9.708;2022-10-31T14:51:14;14.50;99.90
31783;DHT22;18351;47.560;9.708;2022-10-31T14:53:45;14.50;99.90
31783;DHT22;18351;47.560;9.708;2022-10-31T14:56:11;14.50;99.90
31783;DHT22;18351;47.560;9.708;2022-10-31T14:58:41;14.50;99.90
31783;DHT22;18351;47.560;9.708;2022-10-31T15:01:16;14.50;99.90
31783;DHT22;18351;47.560;9.708;2022-10-31T15:03:44;14.50;99.90
31783;DHT22;18351;47.560;9.708;2022-10-31T15:06:12;14.40;99.90
31783;DHT22;18351;47.560;9.708;2022-10-31T15:08:39;14.40;99.90
31783;DHT22;18351;47.560;9.708;2022-10-31T15:11:15;14.40;99.90
31783;DHT22;18351;47.560;9.708;2022-10-31T15:13:41;14.30;99.90
31783;DHT22;18351;47.560;9.708;2022-10-31T15:16:07;14.20;99.90
31783;DHT22;18351;47.560;9.708;2022-10-31T15:18:33;14.20;99.90
31783;DHT22;18351;47.560;9.708;2022-10-31T15:20:59;14.10;99.90
31783;DHT22;18351;47.560;9.708;2022-10-31T15:23:26;14.00;99.90
31783;DHT22;18351;47.560;9.708;2022-10-31T15:26:02;13.90;99.90
31783;DHT22;18351;47.560;9.708;2022-10-31T15:28:29;13.90;99.90
31783;DHT22;18351;47.560;9.708;2022-10-31T15:30:57;13.80;99.90
31783;DHT22;18351;47.560;9.708;2022-10-31T15:33:24;13.80;99.90
31783;DHT22;18351;47.560;9.708;2022-10-31T15:35:57;13.70;99.90
31783;DHT22;18351;47.560;9.708;2022-10-31T15:38:23;13.60;99.90
31783;DHT22;18351;47.560;9.708;2022-10-31T15:41:02;13.50;99.90
31783;DHT22;18351;47.560;9.708;2022-10-31T15:43:32;13.50;99.90
31783;DHT22;18351;47.560;9.708;2022-10-31T15:45:59;13.40;99.90
31783;DHT22;18351;47.560;9.708;2022-10-31T15:48:25;13.20;99.90
31783;DHT22;18351;47.560;9.708;2022-10-31T15:50:52;13.10;99.90
31783;DHT22;18351;47.560;9.708;2022-10-31T15:53:21;13.00;99.90
31783;DHT22;18351;47.560;9.708;2022-10-31T15:55:48;12.90;99.90
31783;DHT22;18351;47.560;9.708;2022-10-31T15:58:15;12.90;99.90
31783;DHT22;18351;47.560;9.708;2022-10-31T16:00:41;12.80;99.90
31783;DHT22;18351;47.560;9.708;2022-10-31T16:05:43;12.60;99.90
31783;DHT22;18351;47.560;9.708;2022-10-31T16:08:22;12.50;99.90
31783;DHT22;18351;47.560;9.708;2022-10-31T16:10:49;12.30;99.90
31783;DHT22;18351;47.560;9.708;2022-10-31T16:13:14;12.20;99.90
31783;DHT22;18351;47.560;9.708;2022-10-31T16:15:47;12.20;99.90
31783;DHT22;18351;47.560;9.708;2022-10-31T16:18:13;12.10;99.90
31783;DHT22;18351;47.560;9.708;2022-10-31T16:20:38;12.00;99.90
31783;DHT22;18351;47.560;9.708;2022-10-31T16:23:04;11.90;99.90
31783;DHT22;18351;47.560;9.708;2022-10-31T16:25:34;11.80;99.90
31783;DHT22;18351;47.560;9.708;2022-10-31T16:28:03;11.60;99.90
31783;DHT22;18351;47.560;9.708;2022-10-31T16:30:36;11.40;99.90
31783;DHT22;18351;47.560;9.708;2022-10-31T16:33:20;11.30;99.90
31783;DHT22;18351;47.560;9.708;2022-10-31T16:35:45;11.20;99.90
31783;DHT22;18351;47.560;9.708;2022-10-31T16:38:11;11.10;99.90
31783;DHT22;18351;47.560;9.708;2022-10-31T16:40:37;11.00;99.90
31783;DHT22;18351;47.560;9.708;2022-10-31T16:43:03;10.90;99.90
31783;DHT22;18351;47.560;9.708;2022-10-31T16:45:31;10.80;99.90
31783;DHT22;18351;47.560;9.708;2022-10-31T16:48:02;10.70;99.90
31783;DHT22;18351;47.560;9.708;2022-10-31T16:50:28;10.60;99.90
31783;DHT22;18351;47.560;9.708;2022-10-31T16:52:54;10.50;99.90
31783;DHT22;18351;47.560;9.708;2022-10-31T16:55:20;10.50;99.90
31783;DHT22;18351;47.560;9.708;2022-10-31T16:57:47;10.50;99.90
31783;DHT22;18351;47.560;9.708;2022-10-31T17:00:14;10.50;99.90
31783;DHT22;18351;47.560;9.708;2022-10-31T17:02:40;10.40;99.90
31783;DHT22;18351;47.560;9.708;2022-10-31T17:05:05;10.40;99.90
31783;DHT22;18351;47.560;9.708;2022-10-31T17:07:33;10.30;99.90
31783;DHT22;18351;47.560;9.708;2022-10-31T17:09:58;10.20;99.90
31783;DHT22;18351;47.560;9.708;2022-10-31T17:12:24;10.20;99.90
31783;DHT22;18351;47.560;9.708;2022-10-31T17:14:51;10.10;99.90
31783;DHT22;18351;47.560;9.708;2022-10-31T17:17:17;10.00;99.90
31783;DHT22;18351;47.560;9.708;2022-10-31T17:19:42;10.00;99.90
31783;DHT22;18351;47.560;9.708;2022-10-31T17:22:11;10.00;99.90
31783;DHT22;18351;47.560;9.708;2022-10-31T17:24:37;9.90;99.90
31783;DHT22;18351;47.560;9.708;2022-10-31T17:27:02;10.00;99.90
31783;DHT22;18351;47.560;9.708;2022-10-31T17:29:28;10.00;99.90
31783;DHT22;18351;47.560;9.708;2022-10-31T17:31:53;9.90;99.90
31783;DHT22;18351;47.560;9.708;2022-10-31T17:34:19;9.80;99.90
31783;DHT22;18351;47.560;9.708;2022-10-31T17:36:48;9.80;99.90
31783;DHT22;18351;47.560;9.708;2022-10-31T17:39:14;9.70;99.90
31783;DHT22;18351;47.560;9.708;2022-10-31T17:41:39;9.80;99.90
31783;DHT22;18351;47.560;9.708;2022-10-31T17:44:05;9.60;99.90